createdAt,value
2022-08-05T00:00:52.240Z,36.16
2022-08-05T00:01:54.179Z,36.39
2022-08-05T00:02:56.277Z,36.22
2022-08-05T00:03:58.181Z,36.51
2022-08-05T00:05:00.271Z,36.32
2022-08-05T00:06:28.942Z,36.36
2022-08-05T00:07:59.683Z,36.13
2022-08-05T00:08:51.790Z,36.35
2022-08-05T00:09:54.716Z,36.47
2022-08-05T00:11:00.458Z,36.37
2022-08-05T00:12:02.886Z,36.29
2022-08-05T00:13:06.695Z,36.30
2022-08-05T00:14:20.559Z,36.50
2022-08-05T00:15:55.551Z,36.38
2022-08-05T00:16:52.421Z,36.09
2022-08-05T00:17:54.956Z,36.43
2022-08-05T00:18:56.718Z,36.35
2022-08-05T00:20:02.778Z,36.24
2022-08-05T00:21:06.787Z,36.64
2022-08-05T00:22:11.330Z,36.41
2022-08-05T00:23:13.477Z,36.35
2022-08-05T00:24:19.304Z,36.50
2022-08-05T00:25:26.858Z,36.21
2022-08-05T00:26:51.749Z,36.40
2022-08-05T00:27:54.117Z,36.39
2022-08-05T00:28:57.342Z,36.39
2022-08-05T00:30:00.582Z,36.47
2022-08-05T00:31:07.615Z,36.73
2022-08-05T00:32:15.312Z,36.13
2022-08-05T00:34:54.675Z,36.54
2022-08-05T00:35:03.414Z,36.32
2022-08-05T00:36:15.977Z,36.32
2022-08-05T00:37:35.321Z,36.10
2022-08-05T00:38:48.492Z,36.55
2022-08-05T00:39:58.732Z,36.35
2022-08-05T00:41:01.062Z,36.57
2022-08-05T00:42:03.324Z,36.60
2022-08-05T00:43:07.423Z,36.56
2022-08-05T00:44:09.578Z,36.36
2022-08-05T00:45:13.596Z,36.57
2022-08-05T00:46:15.382Z,36.72
2022-08-05T00:47:17.746Z,36.72
2022-08-05T00:48:27.482Z,36.84
2022-08-05T00:49:32.559Z,36.79
2022-08-05T00:50:35.051Z,36.63
2022-08-05T00:51:51.481Z,36.82
2022-08-05T00:52:55.040Z,36.72
2022-08-05T00:54:02.523Z,36.89
2022-08-05T00:55:05.536Z,36.72
2022-08-05T00:56:08.215Z,36.84
2022-08-05T00:57:10.107Z,36.68
2022-08-05T00:58:14.210Z,36.66
2022-08-05T00:59:16.059Z,36.51
2022-08-05T01:00:17.854Z,36.92
2022-08-05T01:01:24.925Z,36.75
2022-08-05T01:02:44.033Z,36.74
2022-08-05T01:03:46.107Z,36.83
2022-08-05T01:04:52.091Z,36.94
2022-08-05T01:05:54.717Z,36.77
2022-08-05T01:06:56.854Z,36.81
2022-08-05T01:08:43.195Z,36.69
2022-08-05T01:09:20.873Z,36.78
2022-08-05T01:10:29.045Z,36.84
2022-08-05T01:11:37.747Z,36.94
2022-08-05T01:12:54.218Z,37.01
2022-08-05T01:14:27.768Z,36.63
2022-08-05T01:15:37.061Z,36.48
2022-08-05T01:16:54.811Z,36.73
2022-08-05T01:18:05.503Z,36.66
2022-08-05T01:19:30.381Z,36.76
2022-08-05T01:21:38.197Z,36.21
2022-08-05T01:23:13.557Z,36.37
2022-08-05T01:24:35.847Z,36.29
2022-08-05T01:26:09.789Z,36.70
2022-08-05T01:27:29.965Z,36.49
2022-08-05T01:28:45.436Z,36.79
2022-08-05T01:29:50.488Z,37.01
2022-08-05T01:30:56.849Z,36.77
2022-08-05T01:32:06.477Z,36.91
2022-08-05T01:33:19.722Z,37.06
2022-08-05T01:34:48.652Z,36.79
2022-08-05T01:35:53.937Z,36.64
2022-08-05T01:37:24.536Z,36.68
2022-08-05T01:38:30.000Z,36.79
2022-08-05T01:39:45.589Z,36.72
2022-08-05T01:40:49.777Z,36.74
2022-08-05T01:41:54.347Z,36.78
2022-08-05T01:42:59.024Z,36.90
2022-08-05T01:44:02.843Z,36.92
2022-08-05T01:45:08.187Z,36.79
2022-08-05T01:46:16.308Z,36.66
2022-08-05T01:47:39.476Z,36.46
2022-08-05T01:48:42.571Z,37.00
2022-08-05T01:50:02.267Z,37.08
2022-08-05T01:51:11.985Z,36.75
2022-08-05T01:52:17.501Z,36.64
2022-08-05T01:53:57.102Z,37.08
2022-08-05T01:54:49.170Z,36.47
2022-08-05T01:55:59.110Z,36.83
2022-08-05T01:58:12.555Z,36.86
2022-08-05T01:58:45.256Z,36.53
2022-08-05T01:59:58.168Z,36.56
2022-08-05T02:01:02.779Z,36.70
2022-08-05T02:02:06.422Z,36.86
2022-08-05T02:03:29.023Z,36.87
2022-08-05T02:04:36.748Z,36.88
2022-08-05T02:05:44.792Z,36.83
2022-08-05T02:06:50.836Z,36.72
2022-08-05T02:08:00.233Z,37.08
2022-08-05T02:09:04.904Z,36.92
2022-08-05T02:10:08.117Z,36.99
2022-08-05T02:11:12.814Z,36.80
2022-08-05T02:12:25.387Z,37.07
2022-08-05T02:13:53.439Z,37.14
2022-08-05T02:15:15.564Z,36.91
2022-08-05T02:16:34.778Z,36.77
2022-08-05T02:18:32.235Z,36.75
2022-08-05T02:19:35.891Z,36.93
2022-08-05T02:20:52.320Z,36.83
2022-08-05T02:22:27.275Z,36.70
2022-08-05T02:23:38.635Z,36.91
2022-08-05T02:24:46.495Z,36.99
2022-08-05T02:25:54.167Z,36.86
2022-08-05T02:27:00.355Z,36.87
2022-08-05T02:28:14.747Z,37.08
2022-08-05T02:29:24.274Z,37.13
2022-08-05T02:30:51.793Z,37.01
2022-08-05T02:32:00.795Z,37.05
2022-08-05T02:33:08.690Z,36.87
2022-08-05T02:34:16.778Z,37.06
2022-08-05T02:35:28.067Z,37.28
2022-08-05T02:36:39.296Z,36.88
2022-08-05T02:37:46.542Z,36.94
2022-08-05T02:38:56.417Z,37.02
2022-08-05T02:40:02.210Z,37.04
2022-08-05T02:41:14.579Z,37.41
2022-08-05T02:42:26.147Z,37.14
2022-08-05T02:43:33.309Z,36.99
2022-08-05T02:44:39.962Z,37.23
2022-08-05T02:45:52.738Z,36.72
2022-08-05T02:47:00.854Z,37.43
2022-08-05T02:48:12.361Z,37.16
2022-08-05T02:49:16.351Z,37.15
2022-08-05T02:50:19.094Z,36.92
2022-08-05T02:51:28.192Z,37.37
2022-08-05T02:52:45.878Z,37.22
2022-08-05T02:53:49.179Z,37.36
2022-08-05T02:54:57.679Z,37.08
2022-08-05T02:56:02.347Z,37.13
2022-08-05T02:57:10.291Z,37.03
2022-08-05T02:58:31.296Z,36.75
2022-08-05T02:59:50.685Z,37.02
2022-08-05T03:00:56.348Z,36.88
2022-08-05T03:02:00.818Z,36.83
2022-08-05T03:03:10.348Z,37.06
2022-08-05T03:04:15.742Z,36.77
2022-08-05T03:05:21.915Z,37.05
2022-08-05T03:06:55.387Z,37.20
2022-08-05T03:08:08.525Z,36.98
2022-08-05T03:09:15.967Z,37.03
2022-08-05T03:10:21.765Z,37.13
2022-08-05T03:11:55.561Z,37.14
2022-08-05T03:12:47.823Z,36.90
2022-08-05T03:14:03.134Z,36.93
2022-08-05T03:15:09.455Z,37.15
2022-08-05T03:16:15.761Z,36.91
2022-08-05T03:17:17.647Z,37.26
2022-08-05T03:18:24.628Z,37.12
2022-08-05T03:19:34.627Z,37.18
2022-08-05T03:20:38.759Z,37.11
2022-08-05T03:21:50.534Z,36.87
2022-08-05T03:22:55.242Z,37.12
2022-08-05T03:24:00.679Z,37.27
2022-08-05T03:25:31.924Z,37.34
2022-08-05T03:26:31.480Z,37.10
2022-08-05T03:27:39.242Z,37.13
2022-08-05T03:28:56.745Z,36.99
2022-08-05T03:30:07.346Z,37.14
2022-08-05T03:31:11.116Z,37.14
2022-08-05T03:32:33.327Z,37.07
2022-08-05T03:33:49.369Z,37.33
2022-08-05T03:34:53.703Z,37.14
2022-08-05T03:35:57.423Z,36.94
2022-08-05T03:36:59.307Z,37.30
2022-08-05T03:38:01.731Z,37.29
2022-08-05T03:39:08.087Z,37.41
2022-08-05T03:40:31.287Z,37.41
2022-08-05T03:41:45.185Z,37.45
2022-08-05T03:42:52.227Z,37.29
2022-08-05T03:44:08.269Z,37.29
2022-08-05T03:45:22.663Z,37.25
2022-08-05T03:46:29.515Z,37.02
2022-08-05T03:47:35.438Z,37.04
2022-08-05T03:48:37.789Z,37.15
2022-08-05T03:49:51.267Z,37.29
2022-08-05T03:52:38.007Z,37.59
2022-08-05T03:52:38.008Z,37.09
2022-08-05T03:55:51.364Z,37.17
2022-08-05T03:56:06.286Z,37.14
2022-08-05T03:56:50.232Z,37.21
2022-08-05T03:57:55.921Z,37.47
2022-08-05T03:59:09.477Z,37.25
2022-08-05T04:00:15.471Z,37.25
2022-08-05T04:01:21.373Z,37.32
2022-08-05T04:02:38.993Z,37.16
2022-08-05T04:04:09.211Z,37.17
2022-08-05T04:05:13.257Z,37.07
2022-08-05T04:06:18.626Z,37.17
2022-08-05T04:07:24.831Z,37.16
2022-08-05T04:08:36.143Z,37.34
2022-08-05T04:09:38.816Z,37.15
2022-08-05T04:10:57.262Z,37.51
2022-08-05T04:11:59.943Z,37.58
2022-08-05T04:13:04.131Z,37.40
2022-08-05T04:14:07.308Z,37.66
2022-08-05T04:15:11.071Z,37.73
2022-08-05T04:16:24.091Z,37.18
2022-08-05T04:17:36.418Z,37.74
2022-08-05T04:18:54.358Z,37.77
2022-08-05T04:19:58.642Z,37.54
2022-08-05T04:21:00.632Z,37.57
2022-08-05T04:22:09.917Z,37.29
2022-08-05T04:23:16.108Z,37.48
2022-08-05T04:24:19.161Z,37.52
2022-08-05T04:25:57.620Z,37.66
2022-08-05T04:26:46.374Z,37.73
2022-08-05T04:27:57.318Z,37.76
2022-08-05T04:29:07.046Z,37.49
2022-08-05T04:30:10.173Z,37.63
2022-08-05T04:31:12.019Z,37.68
2022-08-05T04:32:13.871Z,37.78
2022-08-05T04:34:18.576Z,37.63
2022-08-05T04:34:43.771Z,37.90
2022-08-05T04:36:15.864Z,37.83
2022-08-05T04:37:07.491Z,37.96
2022-08-05T04:38:10.095Z,37.65
2022-08-05T04:39:18.994Z,37.27
2022-08-05T04:40:21.165Z,37.72
2022-08-05T04:41:37.095Z,37.49
2022-08-05T04:42:40.403Z,37.54
2022-08-05T04:43:48.084Z,37.69
2022-08-05T04:44:54.199Z,37.38
2022-08-05T04:45:56.159Z,37.59
2022-08-05T04:46:59.705Z,37.64
2022-08-05T04:48:16.544Z,37.61
2022-08-05T04:49:38.952Z,36.93
2022-08-05T04:51:02.436Z,37.36
2022-08-05T04:52:11.806Z,37.31
2022-08-05T04:53:15.428Z,37.24
2022-08-05T04:54:19.796Z,37.62
2022-08-05T04:55:49.789Z,37.63
2022-08-05T04:56:43.816Z,37.49
2022-08-05T04:57:48.014Z,37.62
2022-08-05T04:58:54.185Z,37.42
2022-08-05T04:59:56.092Z,37.38
2022-08-05T05:00:57.914Z,38.13
2022-08-05T05:02:35.634Z,37.46
2022-08-05T05:03:21.678Z,37.59
2022-08-05T05:04:23.428Z,37.63
2022-08-05T05:05:29.117Z,37.84
2022-08-05T05:06:36.044Z,37.65
2022-08-05T05:07:56.033Z,37.52
2022-08-05T05:08:58.532Z,37.74
2022-08-05T05:10:05.491Z,37.68
2022-08-05T05:11:08.250Z,37.77
2022-08-05T05:12:10.059Z,37.93
2022-08-05T05:13:15.905Z,37.73
2022-08-05T05:14:19.219Z,38.01
2022-08-05T05:15:57.576Z,37.70
2022-08-05T05:16:55.610Z,37.37
2022-08-05T05:17:58.057Z,37.44
2022-08-05T05:19:18.882Z,37.53
2022-08-05T05:20:21.888Z,37.72
2022-08-05T05:21:30.066Z,37.39
2022-08-05T05:22:35.512Z,37.28
2022-08-05T05:24:03.748Z,37.35
2022-08-05T05:25:16.575Z,37.27
2022-08-05T05:26:19.361Z,37.34
2022-08-05T05:27:21.423Z,37.17
2022-08-05T05:28:24.908Z,37.10
2022-08-05T05:29:40.859Z,37.05
2022-08-05T05:30:49.702Z,36.91
2022-08-05T05:31:51.931Z,36.87
2022-08-05T05:32:54.820Z,36.85
2022-08-05T05:33:59.535Z,37.11
2022-08-05T05:35:04.054Z,36.75
2022-08-05T05:36:08.091Z,36.84
2022-08-05T05:37:15.269Z,36.60
2022-08-05T05:38:22.607Z,36.55
2022-08-05T05:39:34.498Z,36.22
2022-08-05T05:40:36.951Z,36.33
2022-08-05T05:41:40.363Z,36.19
2022-08-05T05:42:47.086Z,36.13
2022-08-05T05:43:56.722Z,36.23
2022-08-05T05:45:00.486Z,36.02
2022-08-05T05:46:05.316Z,35.88
2022-08-05T05:47:30.316Z,35.71
2022-08-05T05:48:32.637Z,35.88
2022-08-05T05:49:36.369Z,35.79
2022-08-05T05:50:42.529Z,35.76
2022-08-05T05:51:49.936Z,35.46
2022-08-05T05:52:52.874Z,35.47
2022-08-05T05:53:58.969Z,35.55
2022-08-05T05:55:13.592Z,35.84
2022-08-05T05:56:15.844Z,35.47
2022-08-05T05:57:42.744Z,35.47
2022-08-05T05:58:50.179Z,35.70
2022-08-05T05:59:52.469Z,35.14
2022-08-05T06:00:54.715Z,35.84
2022-08-05T06:01:57.481Z,35.53
2022-08-05T06:03:02.555Z,35.81
2022-08-05T06:04:04.775Z,35.32
2022-08-05T06:05:16.907Z,34.86
2022-08-05T06:06:18.978Z,35.24
2022-08-05T06:07:25.831Z,35.64
2022-08-05T06:08:44.518Z,35.18
2022-08-05T06:10:04.490Z,34.74
2022-08-05T06:11:08.871Z,34.88
2022-08-05T06:12:15.555Z,34.88
2022-08-05T06:13:17.427Z,35.00
2022-08-05T06:14:19.572Z,35.33
2022-08-05T06:15:24.257Z,35.36
2022-08-05T06:16:28.690Z,35.22
2022-08-05T06:17:33.449Z,35.17
2022-08-05T06:18:54.992Z,35.40
2022-08-05T06:19:59.765Z,35.35
2022-08-05T06:21:01.803Z,34.96
2022-08-05T06:22:04.647Z,35.17
2022-08-05T06:23:08.483Z,35.34
2022-08-05T06:24:12.487Z,35.39
2022-08-05T06:25:58.975Z,35.63
2022-08-05T06:26:36.683Z,34.96
2022-08-05T06:28:11.727Z,34.95
2022-08-05T06:29:03.458Z,34.97
2022-08-05T06:30:18.112Z,35.09
2022-08-05T06:31:23.147Z,34.77
2022-08-05T06:32:34.170Z,34.92
2022-08-05T06:34:07.817Z,35.10
2022-08-05T06:35:05.968Z,34.85
2022-08-05T06:36:17.104Z,34.79
2022-08-05T06:37:56.996Z,34.74
2022-08-05T06:38:47.021Z,34.83
2022-08-05T06:39:49.077Z,34.62
2022-08-05T06:40:51.783Z,35.15
2022-08-05T06:41:53.653Z,34.48
2022-08-05T06:42:55.601Z,34.75
2022-08-05T06:44:00.573Z,34.90
2022-08-05T06:45:05.270Z,34.71
2022-08-05T06:46:10.615Z,35.16
2022-08-05T06:48:11.599Z,34.57
2022-08-05T06:48:53.009Z,34.38
2022-08-05T06:50:01.283Z,34.27
2022-08-05T06:51:09.302Z,34.74
2022-08-05T06:52:37.051Z,34.24
2022-08-05T06:53:33.887Z,34.45
2022-08-05T06:54:41.413Z,34.20
2022-08-05T06:55:43.225Z,34.27
2022-08-05T06:56:55.110Z,34.32
2022-08-05T06:58:29.766Z,34.22
2022-08-05T06:59:38.877Z,34.31
2022-08-05T07:00:44.263Z,34.13
2022-08-05T07:01:46.573Z,34.26
2022-08-05T07:02:54.849Z,34.53
2022-08-05T07:03:56.617Z,34.08
2022-08-05T07:04:58.409Z,34.48
2022-08-05T07:06:05.674Z,34.29
2022-08-05T07:07:15.639Z,34.26
2022-08-05T07:08:26.127Z,34.16
2022-08-05T07:09:32.338Z,34.33
2022-08-05T07:10:52.296Z,34.36
2022-08-05T07:11:56.597Z,34.38
2022-08-05T07:13:57.063Z,34.09
2022-08-05T07:15:01.115Z,33.98
2022-08-05T07:17:56.535Z,34.12
2022-08-05T07:18:08.453Z,34.00
2022-08-05T07:19:05.430Z,33.78
2022-08-05T07:20:33.021Z,33.56
2022-08-05T07:22:00.733Z,34.23
2022-08-05T07:22:53.241Z,33.81
2022-08-05T07:23:55.219Z,33.94
2022-08-05T07:24:59.373Z,33.72
2022-08-05T07:26:01.223Z,33.50
2022-08-05T07:27:04.049Z,34.25
2022-08-05T07:28:17.213Z,33.63
2022-08-05T07:29:19.671Z,33.89
2022-08-05T07:30:41.609Z,33.85
2022-08-05T07:31:54.544Z,34.04
2022-08-05T07:32:57.432Z,33.83
2022-08-05T07:33:59.856Z,33.67
2022-08-05T07:36:02.438Z,33.91
2022-08-05T07:36:24.035Z,33.64
2022-08-05T07:37:29.206Z,33.43
2022-08-05T07:38:43.509Z,33.79
2022-08-05T07:40:27.050Z,33.68
2022-08-05T07:42:07.209Z,33.49
2022-08-05T07:42:34.003Z,33.43
2022-08-05T07:43:38.437Z,33.33
2022-08-05T07:44:40.440Z,33.40
2022-08-05T07:45:57.098Z,33.42
2022-08-05T07:46:59.847Z,33.74
2022-08-05T07:48:02.750Z,33.43
2022-08-05T07:49:06.243Z,33.38
2022-08-05T07:50:10.431Z,33.72
2022-08-05T07:51:23.613Z,33.41
2022-08-05T07:52:40.178Z,33.46
2022-08-05T07:53:50.428Z,33.63
2022-08-05T07:54:53.525Z,33.34
2022-08-05T07:56:06.462Z,33.53
2022-08-05T07:57:41.951Z,33.60
2022-08-05T07:58:55.079Z,33.15
2022-08-05T08:00:01.343Z,33.25
2022-08-05T08:01:06.110Z,33.19
2022-08-05T08:02:16.620Z,33.23
2022-08-05T08:03:19.363Z,33.13
2022-08-05T08:04:37.997Z,33.17
2022-08-05T08:05:49.492Z,33.24
2022-08-05T08:06:51.746Z,33.42
2022-08-05T08:07:59.669Z,33.30
2022-08-05T08:09:02.481Z,33.15
2022-08-05T08:10:06.136Z,33.44
2022-08-05T08:11:09.104Z,33.55
2022-08-05T08:12:33.294Z,33.15
2022-08-05T08:13:42.707Z,33.17
2022-08-05T08:14:51.311Z,33.29
2022-08-05T08:16:35.578Z,33.14
2022-08-05T08:17:16.467Z,33.05
2022-08-05T08:18:21.002Z,33.18
2022-08-05T08:20:22.277Z,33.56
2022-08-05T08:21:02.225Z,33.17
2022-08-05T08:22:06.523Z,33.41
2022-08-05T08:24:00.104Z,33.44
2022-08-05T08:24:50.994Z,33.32
2022-08-05T08:26:00.197Z,33.34
2022-08-05T08:27:07.042Z,33.40
2022-08-05T08:28:18.338Z,33.37
2022-08-05T08:30:03.738Z,33.38
2022-08-05T08:30:48.723Z,33.06
2022-08-05T08:31:52.732Z,33.18
2022-08-05T08:32:54.646Z,33.53
2022-08-05T08:33:56.555Z,33.24
2022-08-05T08:34:58.967Z,33.51
2022-08-05T08:36:29.598Z,33.41
2022-08-05T08:37:27.825Z,33.47
2022-08-05T08:38:35.672Z,33.42
2022-08-05T08:39:38.246Z,33.61
2022-08-05T08:40:51.868Z,33.53
2022-08-05T08:41:59.691Z,33.57
2022-08-05T08:45:01.571Z,33.13
2022-08-05T08:45:24.182Z,33.10
2022-08-05T08:45:54.174Z,32.99
2022-08-05T08:46:56.734Z,33.29
2022-08-05T08:48:07.414Z,33.20
2022-08-05T08:50:13.042Z,33.11
2022-08-05T08:51:03.584Z,33.10
2022-08-05T08:52:18.047Z,32.98
2022-08-05T08:53:21.235Z,33.25
2022-08-05T08:54:27.349Z,33.49
2022-08-05T08:56:01.591Z,33.24
2022-08-05T08:56:51.849Z,33.09
2022-08-05T08:57:57.922Z,32.90
2022-08-05T08:59:01.073Z,33.26
2022-08-05T09:00:12.077Z,33.33
2022-08-05T09:01:19.654Z,33.40
2022-08-05T09:02:24.217Z,33.25
2022-08-05T09:03:40.568Z,33.04
2022-08-05T09:05:16.920Z,33.47
2022-08-05T09:06:11.525Z,32.71
2022-08-05T09:07:19.309Z,33.07
2022-08-05T09:08:26.597Z,33.30
2022-08-05T09:09:34.753Z,33.45
2022-08-05T09:10:41.651Z,33.33
2022-08-05T09:11:52.997Z,33.24
2022-08-05T09:13:04.467Z,33.21
2022-08-05T09:14:54.451Z,33.27
2022-08-05T09:15:30.469Z,32.98
2022-08-05T09:16:32.578Z,33.24
2022-08-05T09:17:42.810Z,33.00
2022-08-05T09:18:52.371Z,33.18
2022-08-05T09:20:02.413Z,32.80
2022-08-05T09:21:11.498Z,33.28
2022-08-05T09:22:32.051Z,33.24
2022-08-05T09:23:37.216Z,32.87
2022-08-05T09:24:58.756Z,32.96
2022-08-05T09:26:15.909Z,32.94
2022-08-05T09:28:04.890Z,32.69
2022-08-05T09:29:04.447Z,33.07
2022-08-05T09:30:07.058Z,32.75
2022-08-05T09:31:43.899Z,33.20
2022-08-05T09:32:42.804Z,33.13
2022-08-05T09:33:52.788Z,32.76
2022-08-05T09:34:58.462Z,33.15
2022-08-05T09:36:11.622Z,33.15
2022-08-05T09:38:17.363Z,33.15
2022-08-05T09:39:16.470Z,32.59
2022-08-05T09:40:44.517Z,32.81
2022-08-05T09:42:04.911Z,32.69
2022-08-05T09:43:08.473Z,32.90
2022-08-05T09:44:11.233Z,32.94
2022-08-05T09:46:05.036Z,33.01
2022-08-05T09:46:35.239Z,32.98
2022-08-05T09:47:55.079Z,33.08
2022-08-05T09:49:08.064Z,32.85
2022-08-05T09:50:38.711Z,32.63
2022-08-05T09:51:43.199Z,32.56
2022-08-05T09:52:45.448Z,32.72
2022-08-05T09:53:54.531Z,33.00
2022-08-05T09:54:57.630Z,32.70
2022-08-05T09:56:03.813Z,33.02
2022-08-05T09:57:07.233Z,32.70
2022-08-05T09:58:26.698Z,32.76
2022-08-05T09:59:35.217Z,32.97
2022-08-05T10:00:39.553Z,32.89
2022-08-05T10:01:45.853Z,33.09
2022-08-05T10:02:50.711Z,33.03
2022-08-05T10:04:03.551Z,32.56
2022-08-05T10:05:09.817Z,32.82
2022-08-05T10:06:14.861Z,32.68
2022-08-05T10:07:20.944Z,32.66
2022-08-05T10:08:42.524Z,32.63
2022-08-05T10:10:14.093Z,32.75
2022-08-05T10:11:18.115Z,32.28
2022-08-05T10:12:33.597Z,32.74
2022-08-05T10:13:45.817Z,32.83
2022-08-05T10:14:50.385Z,32.37
2022-08-05T10:15:58.380Z,32.40
2022-08-05T10:17:37.208Z,32.66
2022-08-05T10:18:37.187Z,32.55
2022-08-05T10:20:02.800Z,32.75
2022-08-05T10:21:11.852Z,32.85
2022-08-05T10:22:29.898Z,32.51
2022-08-05T10:24:00.074Z,32.76
2022-08-05T10:24:59.738Z,32.60
2022-08-05T10:26:07.230Z,32.72
2022-08-05T10:27:11.292Z,32.73
2022-08-05T10:28:19.495Z,32.58
2022-08-05T10:30:06.387Z,32.43
2022-08-05T10:32:48.526Z,32.53
2022-08-05T10:32:53.762Z,32.47
2022-08-05T10:33:44.813Z,32.61
2022-08-05T10:34:46.936Z,32.54
2022-08-05T10:35:59.794Z,32.69
2022-08-05T10:37:02.544Z,32.60
2022-08-05T10:38:05.801Z,32.60
2022-08-05T10:40:03.559Z,32.66
2022-08-05T10:40:58.372Z,32.74
2022-08-05T10:42:33.498Z,32.49
2022-08-05T10:43:59.719Z,32.54
2022-08-05T10:45:20.903Z,32.71
2022-08-05T10:46:24.323Z,32.63
2022-08-05T10:47:33.136Z,32.80
2022-08-05T10:48:57.146Z,32.61
2022-08-05T10:50:32.364Z,32.82
2022-08-05T10:51:28.779Z,32.14
2022-08-05T10:52:46.939Z,32.60
2022-08-05T10:53:51.373Z,32.54
2022-08-05T10:55:05.672Z,32.43
2022-08-05T10:56:21.598Z,32.73
2022-08-05T10:57:29.355Z,32.60
2022-08-05T10:58:47.913Z,32.88
2022-08-05T11:00:18.180Z,32.32
2022-08-05T11:01:55.203Z,32.43
2022-08-05T11:03:23.042Z,32.30
2022-08-05T11:04:28.116Z,32.08
2022-08-05T11:05:34.339Z,32.11
2022-08-05T11:07:06.630Z,32.29
2022-08-05T11:08:36.866Z,32.35
2022-08-05T11:09:47.369Z,32.19
2022-08-05T11:10:50.220Z,32.21
2022-08-05T11:12:03.282Z,32.63
2022-08-05T11:13:07.191Z,32.50
2022-08-05T11:14:11.701Z,32.39
2022-08-05T11:15:20.155Z,32.65
2022-08-05T11:16:34.021Z,32.38
2022-08-05T11:18:07.687Z,32.37
2022-08-05T11:20:16.706Z,32.55
2022-08-05T11:20:54.076Z,32.18
2022-08-05T11:22:16.615Z,32.20
2022-08-05T11:24:05.536Z,32.42
2022-08-05T11:26:06.166Z,32.29
2022-08-05T11:27:45.853Z,31.84
2022-08-05T11:28:54.119Z,32.17
2022-08-05T11:30:01.858Z,32.03
2022-08-05T11:31:06.176Z,32.60
2022-08-05T11:32:29.182Z,32.28
2022-08-05T11:33:46.426Z,32.67
2022-08-05T11:34:54.014Z,32.31
2022-08-05T11:36:08.502Z,32.39
2022-08-05T11:38:28.421Z,32.36
2022-08-05T11:38:45.843Z,32.37
2022-08-05T11:40:00.367Z,32.32
2022-08-05T11:41:35.529Z,32.27
2022-08-05T11:42:31.829Z,32.26
2022-08-05T11:44:06.417Z,32.33
2022-08-05T11:45:14.498Z,32.11
2022-08-05T11:47:09.563Z,32.01
2022-08-05T11:48:13.926Z,32.32
2022-08-05T11:49:19.050Z,32.16
2022-08-05T11:50:20.996Z,32.17
2022-08-05T11:51:44.274Z,32.07
2022-08-05T11:52:48.854Z,32.48
2022-08-05T11:53:52.042Z,32.60
2022-08-05T11:54:59.575Z,32.47
2022-08-05T11:56:11.301Z,32.39
2022-08-05T11:57:25.562Z,32.17
2022-08-05T11:58:36.599Z,32.32
2022-08-05T11:59:49.907Z,32.21
2022-08-05T12:01:08.466Z,32.35
2022-08-05T12:02:24.069Z,32.01
2022-08-05T12:03:43.634Z,32.28
2022-08-05T12:04:59.700Z,32.35
2022-08-05T12:06:06.226Z,32.29
2022-08-05T12:07:14.419Z,32.29
2022-08-05T12:08:18.270Z,32.03
2022-08-05T12:09:52.864Z,32.49
2022-08-05T12:10:49.328Z,32.07
2022-08-05T12:11:54.883Z,32.17
2022-08-05T12:13:16.027Z,32.35
2022-08-05T12:14:19.464Z,32.47
2022-08-05T12:15:37.778Z,32.55
2022-08-05T12:16:45.442Z,31.92
2022-08-05T12:18:04.010Z,32.50
2022-08-05T12:20:26.093Z,31.98
2022-08-05T12:20:38.521Z,32.51
2022-08-05T12:21:48.273Z,32.33
2022-08-05T12:22:51.843Z,32.48
2022-08-05T12:24:09.489Z,32.44
2022-08-05T12:25:14.278Z,32.54
2022-08-05T12:26:18.619Z,32.17
2022-08-05T12:27:25.486Z,32.53
2022-08-05T12:28:39.008Z,32.57
2022-08-05T12:29:40.771Z,32.13
2022-08-05T12:30:45.860Z,32.39
2022-08-05T12:31:53.789Z,32.11
2022-08-05T12:32:58.784Z,32.21
2022-08-05T12:34:14.571Z,32.37
2022-08-05T12:35:24.624Z,32.15
2022-08-05T12:36:39.483Z,32.41
2022-08-05T12:37:43.067Z,32.47
2022-08-05T12:38:45.439Z,32.18
2022-08-05T12:39:48.694Z,32.65
2022-08-05T12:40:55.955Z,32.74
2022-08-05T12:42:02.081Z,32.33
2022-08-05T12:43:07.401Z,32.67
2022-08-05T12:44:21.756Z,32.65
2022-08-05T12:45:48.321Z,32.18
2022-08-05T12:46:53.839Z,32.21
2022-08-05T12:48:01.493Z,32.20
2022-08-05T12:49:19.069Z,32.52
2022-08-05T12:50:21.195Z,32.32
2022-08-05T12:52:12.510Z,32.16
2022-08-05T12:53:00.203Z,32.45
2022-08-05T12:54:04.037Z,32.39
2022-08-05T12:55:23.932Z,32.40
2022-08-05T12:56:35.140Z,32.63
2022-08-05T12:58:39.102Z,32.78
2022-08-05T12:59:46.466Z,32.12
2022-08-05T13:02:00.104Z,32.19
2022-08-05T13:02:12.831Z,31.84
2022-08-05T13:03:15.264Z,32.16
2022-08-05T13:04:21.012Z,32.62
2022-08-05T13:05:24.825Z,32.35
2022-08-05T13:06:51.579Z,32.72
2022-08-05T13:07:59.653Z,32.61
2022-08-05T13:09:12.681Z,32.62
2022-08-05T13:10:19.621Z,32.22
2022-08-05T13:12:02.352Z,32.60
2022-08-05T13:12:58.507Z,32.32
2022-08-05T13:14:07.517Z,32.38
2022-08-05T13:15:16.571Z,32.35
2022-08-05T13:16:27.697Z,32.71
2022-08-05T13:17:41.451Z,32.74
2022-08-05T13:18:55.145Z,32.86
2022-08-05T13:20:01.438Z,32.38
2022-08-05T13:21:03.400Z,32.39
2022-08-05T13:22:06.178Z,32.35
2022-08-05T13:23:08.774Z,32.61
2022-08-05T13:24:10.630Z,32.38
2022-08-05T13:25:19.087Z,32.88
2022-08-05T13:26:30.069Z,32.72
2022-08-05T13:27:39.055Z,32.80
2022-08-05T13:28:44.047Z,32.82
2022-08-05T13:30:32.336Z,32.81
2022-08-05T13:31:13.844Z,32.64
2022-08-05T13:32:29.246Z,32.40
2022-08-05T13:34:23.398Z,32.73
2022-08-05T13:34:56.860Z,32.20
2022-08-05T13:36:01.971Z,32.69
2022-08-05T13:37:07.073Z,32.54
2022-08-05T13:38:09.198Z,32.45
2022-08-05T13:39:24.649Z,32.33
2022-08-05T13:40:51.725Z,32.19
2022-08-05T13:41:53.832Z,32.33
2022-08-05T13:42:57.664Z,32.72
2022-08-05T13:43:59.795Z,32.79
2022-08-05T13:45:02.129Z,32.43
2022-08-05T13:46:03.879Z,32.45
2022-08-05T13:47:09.072Z,32.97
2022-08-05T13:48:57.993Z,32.34
2022-08-05T13:49:35.428Z,32.50
2022-08-05T13:50:37.393Z,32.50
2022-08-05T13:51:41.527Z,32.50
2022-08-05T13:52:50.018Z,32.27
2022-08-05T13:53:52.060Z,32.80
2022-08-05T13:55:01.181Z,32.78
2022-08-05T13:56:04.080Z,32.66
2022-08-05T13:57:20.972Z,32.59
2022-08-05T13:58:30.386Z,32.39
2022-08-05T13:59:32.990Z,32.43
2022-08-05T14:00:36.527Z,32.91
2022-08-05T14:01:46.727Z,32.62
2022-08-05T14:03:01.395Z,32.54
2022-08-05T14:04:22.382Z,32.52
2022-08-05T14:05:47.948Z,32.63
2022-08-05T14:06:58.764Z,33.00
2022-08-05T14:08:20.300Z,32.58
2022-08-05T14:09:22.487Z,32.51
2022-08-05T14:10:28.730Z,32.63
2022-08-05T14:11:32.954Z,32.63
2022-08-05T14:12:55.115Z,32.79
2022-08-05T14:13:57.159Z,32.67
2022-08-05T14:14:59.842Z,32.68
2022-08-05T14:16:04.687Z,33.04
2022-08-05T14:17:16.894Z,32.46
2022-08-05T14:18:23.294Z,33.07
2022-08-05T14:19:25.854Z,32.87
2022-08-05T14:20:32.352Z,33.10
2022-08-05T14:22:08.831Z,33.09
2022-08-05T14:22:57.609Z,32.45
2022-08-05T14:24:00.648Z,33.08
2022-08-05T14:25:06.183Z,32.88
2022-08-05T14:26:35.798Z,32.69
2022-08-05T14:27:47.552Z,32.88
2022-08-05T14:28:52.342Z,32.96
2022-08-05T14:29:54.567Z,33.01
2022-08-05T14:31:00.541Z,32.90
2022-08-05T14:32:15.892Z,32.60
2022-08-05T14:33:24.959Z,32.62
2022-08-05T14:34:26.972Z,32.47
2022-08-05T14:35:50.073Z,33.00
2022-08-05T14:36:50.910Z,32.97
2022-08-05T14:37:55.447Z,32.57
2022-08-05T14:38:57.515Z,32.45
2022-08-05T14:39:59.592Z,32.58
2022-08-05T14:41:07.456Z,32.84
2022-08-05T14:42:21.316Z,32.61
2022-08-05T14:43:59.416Z,32.69
2022-08-05T14:44:45.967Z,32.51
2022-08-05T14:45:47.755Z,32.70
2022-08-05T14:46:49.643Z,32.79
2022-08-05T14:48:05.473Z,32.85
2022-08-05T14:49:08.388Z,32.75
2022-08-05T14:50:17.802Z,32.96
2022-08-05T14:51:21.048Z,32.43
2022-08-05T14:52:50.517Z,32.87
2022-08-05T14:53:45.649Z,32.75
2022-08-05T14:55:08.635Z,32.70
2022-08-05T14:56:22.657Z,32.75
2022-08-05T14:57:24.747Z,32.65
2022-08-05T14:58:36.068Z,32.58
2022-08-05T14:59:37.887Z,32.92
2022-08-05T15:00:58.722Z,32.69
2022-08-05T15:02:01.829Z,32.59
2022-08-05T15:03:06.117Z,32.61
2022-08-05T15:04:11.938Z,32.68
2022-08-05T15:05:14.414Z,32.74
2022-08-05T15:06:16.234Z,32.80
2022-08-05T15:08:05.719Z,32.78
2022-08-05T15:08:59.887Z,32.85
2022-08-05T15:10:03.767Z,32.48
2022-08-05T15:11:07.863Z,32.54
2022-08-05T15:12:16.285Z,32.82
2022-08-05T15:13:18.760Z,32.59
2022-08-05T15:14:34.789Z,32.64